AirNav   Bose ProFlight Series 2 Headset
 
 1333 users online  

IA09 Grinnell Regional Medical Center Heliport
Grinnell, Iowa, USA

GOING TO GRINNELL?


FAA INFORMATION EFFECTIVE 30 JANUARY 2020

Location

FAA Identifier: IA09
Lat/Long: 41-44-32.0100N 092-44-04.8500W
41-44.533500N 092-44.080833W
41.7422250,-92.7346806
(estimated)
Elevation: 18 ft. / 5 m (estimated)
Variation: 03E (1995)
Time zone: UTC -6 (UTC -5 during Daylight Saving Time)
Zip code: 50112

Heliport Operations

Heliport use: Private use, MEDICAL USE.
Activation date: 12/1999
Control tower: no
ARTCC: CHICAGO CENTER
FSS: FORT DODGE FLIGHT SERVICE STATION
Attendance: CONTINUOUS
Segmented circle: no

Heliport Communications

WX AWOS-3 at GGI (1.9 nm S): 120.725 (641-236-9720)
WX AWOS-3 at TNU (13 nm W): 132.275 (641-791-3302)

Nearby radio navigation aids

VOR radial/distance  VOR name  Freq  Var
TNUr095/16.9NEWTON VOR/DME112.5003E
JWJr160/23.5ELMWOOD VOR/DME109.4001E

 
NDB name  Hdg/Dist  Freq  Var  ID
PELLA023/22.325702EPEA .--. . .-

Heliport Services

Runway Information

Helipad H1

Dimensions: 54 x 54 ft. / 16 x 16 m
Surface: concrete
Runway edge lights: PERI
Latitude: 41-44.533500N
Longitude: 092-44.080833W
Elevation: 18.0 ft.
Traffic pattern: leftleft

Heliport Ownership and Management from official FAA records

Ownership: Privately-owned
Owner: GRINNELL REGIONAL MEDICAL CENTER
210 4TH AVE
GRINNELL, IA 50112
Phone 515-236-2414
Manager: SAFETY DIRECTOR
210 4TH AVE
GRINNELL, IA 50112
Phone 515-236-2414

Additional Remarks

A52-H1 +12 FT BLDG 60 FT NNE & 20 FT TWR (LGTD) NE OF HELIPAD.
OWNER DESIRES HELIPORT NOT BE CHARTED.
FOR CD CTC CHICAGO ARTCC AT 630-906-8921.

Instrument Procedures

There are no published instrument procedures at IA09.

Some nearby airports with instrument procedures:

KGGI - Grinnell Regional Airport (2 nm S)
KTNU - Newton Municipal Airport-Earl Johnson Field (13 nm W)
KTZT - Belle Plaine Municipal Airport (22 nm E)
KPEA - Pella Municipal Airport (23 nm SW)
KMIW - Marshalltown Municipal Airport (24 nm N)
 
Loc | Ops | Rwys | IFR | FBO | Links
Com | Nav | Svcs | Stats | Notes
Area around IA09 (Grinnell Regional Medical Center Heliport)
 
Road maps at: MapQuest Bing Google
 
Aerial photo
No photo
 
Sectional chart

 
Airport distance calculator
Flying to Grinnell Regional Medical Center Heliport? Find the distance to fly.

From to IA09

Sunrise and sunset
Times for 17-Feb-2020
 Local
(UTC-6)
 Zulu
(UTC)
Morning civil twilight06:3612:36
Sunrise07:0513:05
Sunset17:4523:45
Evening civil twilight18:1400:14

Current date and time
Zulu (UTC)  17-Feb-2020 15:38:34
Local (UTC-6)  17-Feb-2020 09:38:34
 
METAR
KGGI 
2nm S 
171515Z AUTO 10008KT 2SM -RA OVC039 01/00 A2990 RMK AO2 T00050000
KTNU 
13nm W 
171515Z AUTO 12010KT 2 1/2SM BR BKN004 01/01 A2988 RMK A01
TAF
KOTM 
41nm S 
171139Z 1712/1812 10005KT 6SM -RA BR OVC045 FM171700 17006KT P6SM VCSH OVC015 FM172100 23005KT P6SM VCSH BKN008 FM180300 31015G23KT P6SM BKN010
KDSM 
44nm W 
171139Z 1712/1812 11004KT P6SM -RA BKN040 BKN060 OVC080 FM171400 14004KT 5SM -RA OVC035 FM171900 18004KT P6SM VCSH BKN010 FM172300 31010KT P6SM BKN015 FM180100 32014G22KT P6SM BKN010
KCID 
46nm E 
171422Z 1714/1812 12009KT 4SM -FZRA BR OVC035 FM171600 13008KT 4SM -RA BR OVC030 FM171900 12008KT 3SM -RA BR OVC006 FM180200 25008KT 3SM SHRA BR OVC004 FM180400 32014G24KT P6SM OVC015
NOTAMs
Click for the latest NOTAMs
NOTAMs are issued by the DoD/FAA and will open in a separate window not controlled by AirNav.

 

 
 

Would you like to see your business listed on this page?

 If your business provides an interesting product or service to pilots, flight crews, aircraft, or users of the Grinnell Regional Medical Center Heliport, you should consider listing it here.  To start the listing process, click on the button below
 
Add a business
 

Other Pages about Grinnell Regional Medical Center Heliport

Update a link
 
Copyright © AirNav, LLC. All rights reserved. Privacy Policy  Contact